createdAt,value
2018-12-28T00:00:23.610Z,28.87
2018-12-28T00:02:27.517Z,26.17
2018-12-28T00:04:33.173Z,25.40
2018-12-28T00:06:37.941Z,26.30
2018-12-28T00:08:41.806Z,23.00
2018-12-28T00:10:45.683Z,21.90
2018-12-28T00:12:49.573Z,26.97
2018-12-28T00:14:56.001Z,33.73
2018-12-28T00:16:59.967Z,26.10
2018-12-28T00:19:03.857Z,23.27
2018-12-28T00:21:09.241Z,20.63
2018-12-28T00:23:13.100Z,25.80
2018-12-28T00:25:16.964Z,26.43
2018-12-28T00:27:21.211Z,25.97
2018-12-28T00:29:25.140Z,24.20
2018-12-28T00:31:29.003Z,26.50
2018-12-28T00:33:32.889Z,28.23
2018-12-28T00:35:36.745Z,27.97
2018-12-28T00:37:40.995Z,25.77
2018-12-28T00:39:44.927Z,23.87
2018-12-28T00:41:48.854Z,33.67
2018-12-28T00:43:52.824Z,26.33
2018-12-28T00:45:56.663Z,23.77
2018-12-28T00:48:00.531Z,29.40
2018-12-28T00:50:04.723Z,22.50
2018-12-28T00:52:08.586Z,27.53
2018-12-28T00:54:12.470Z,24.17
2018-12-28T00:56:17.623Z,25.77
2018-12-28T00:58:21.719Z,24.37
2018-12-28T01:00:27.999Z,25.33
2018-12-28T01:02:32.084Z,27.87
2018-12-28T01:04:36.005Z,27.03
2018-12-28T01:06:40.132Z,25.13
2018-12-28T01:08:44.033Z,24.93
2018-12-28T01:10:47.913Z,25.63
2018-12-28T01:12:54.358Z,26.60
2018-12-28T01:14:58.220Z,25.80
2018-12-28T01:17:02.173Z,26.30
2018-12-28T01:19:07.425Z,26.50
2018-12-28T01:21:11.356Z,23.47
2018-12-28T01:23:15.238Z,25.27
2018-12-28T01:25:19.133Z,22.07
2018-12-28T01:27:23.354Z,26.27
2018-12-28T01:29:27.268Z,25.60
2018-12-28T01:31:31.171Z,32.37
2018-12-28T01:33:35.097Z,28.30
2018-12-28T01:35:38.975Z,34.40
2018-12-28T01:37:43.074Z,26.47
2018-12-28T01:39:47.533Z,28.43
2018-12-28T01:41:51.389Z,24.93
2018-12-28T01:43:55.288Z,25.03
2018-12-28T01:45:59.173Z,27.57
2018-12-28T01:48:03.055Z,25.30
2018-12-28T01:50:06.996Z,27.03
2018-12-28T01:52:10.963Z,26.40
2018-12-28T01:54:14.857Z,25.13
2018-12-28T01:56:18.721Z,29.47
2018-12-28T01:58:22.607Z,26.23
2018-12-28T02:00:26.553Z,26.40
2018-12-28T02:02:30.439Z,25.40
2018-12-28T02:04:34.310Z,27.50
2018-12-28T02:06:38.256Z,29.37
2018-12-28T02:08:42.127Z,27.93
2018-12-28T02:10:45.993Z,24.67
2018-12-28T02:12:50.274Z,23.33
2018-12-28T02:14:54.367Z,28.57
2018-12-28T02:16:58.425Z,30.63
2018-12-28T02:19:03.972Z,27.07
2018-12-28T02:21:08.129Z,25.83
2018-12-28T02:23:12.174Z,23.30
2018-12-28T02:25:16.061Z,25.77
2018-12-28T02:27:19.920Z,28.40
2018-12-28T02:29:25.279Z,26.37
2018-12-28T02:31:29.346Z,28.13
2018-12-28T02:33:33.217Z,27.07
2018-12-28T02:35:37.124Z,24.87
2018-12-28T02:37:41.010Z,27.47
2018-12-28T02:39:44.912Z,25.87
2018-12-28T02:41:49.224Z,28.63
2018-12-28T02:43:53.062Z,27.50
2018-12-28T02:45:57.065Z,30.13
2018-12-28T02:48:00.933Z,25.63
2018-12-28T02:50:05.105Z,27.97
2018-12-28T02:52:08.989Z,32.80
2018-12-28T02:54:12.870Z,27.37
2018-12-28T02:56:16.780Z,27.47
2018-12-28T02:58:20.693Z,28.20
2018-12-28T03:00:24.582Z,28.17
2018-12-28T03:02:28.475Z,24.57
2018-12-28T03:04:32.387Z,30.47
2018-12-28T03:06:36.249Z,28.10
2018-12-28T03:08:40.147Z,26.50
2018-12-28T03:10:44.018Z,29.87
2018-12-28T03:12:47.921Z,27.60
2018-12-28T03:14:51.839Z,26.97
2018-12-28T03:16:55.712Z,30.40
2018-12-28T03:18:59.599Z,25.63
2018-12-28T03:21:03.502Z,24.07
2018-12-28T03:23:07.373Z,27.00
2018-12-28T03:25:11.271Z,29.57
2018-12-28T03:27:15.145Z,34.07
2018-12-28T03:29:19.023Z,28.40
2018-12-28T03:31:25.267Z,30.23
2018-12-28T03:33:28.429Z,29.53
2018-12-28T03:35:32.389Z,30.03
2018-12-28T03:37:36.263Z,30.20
2018-12-28T03:39:40.125Z,31.27
2018-12-28T03:41:44.013Z,33.00
2018-12-28T03:43:47.908Z,28.50
2018-12-28T03:45:51.822Z,32.87
2018-12-28T03:47:55.873Z,29.17
2018-12-28T03:49:59.779Z,34.00
2018-12-28T03:52:03.644Z,29.90
2018-12-28T03:54:07.521Z,28.70
2018-12-28T03:56:11.431Z,30.97
2018-12-28T03:58:15.328Z,28.13
2018-12-28T04:00:19.257Z,28.73
2018-12-28T04:02:23.105Z,28.57
2018-12-28T04:04:26.968Z,29.43
2018-12-28T04:06:31.581Z,29.00
2018-12-28T04:08:35.492Z,31.87
2018-12-28T04:10:39.351Z,28.23
2018-12-28T04:12:43.268Z,29.63
2018-12-28T04:14:47.161Z,26.63
2018-12-28T04:16:51.045Z,32.00
2018-12-28T04:18:54.895Z,29.47
2018-12-28T04:20:58.826Z,30.40
2018-12-28T04:23:02.675Z,31.43
2018-12-28T04:25:06.596Z,35.47
2018-12-28T04:27:10.521Z,31.40
2018-12-28T04:29:14.374Z,32.67
2018-12-28T04:31:18.293Z,28.53
2018-12-28T04:33:22.188Z,33.43
2018-12-28T04:35:26.040Z,31.93
2018-12-28T04:37:30.051Z,30.43
2018-12-28T04:39:34.068Z,34.53
2018-12-28T04:41:37.911Z,29.70
2018-12-28T04:43:41.774Z,32.10
2018-12-28T04:45:45.690Z,32.60
2018-12-28T04:47:49.538Z,34.53
2018-12-28T04:49:53.435Z,33.60
2018-12-28T04:51:58.581Z,33.93
2018-12-28T04:54:04.172Z,33.47
2018-12-28T04:56:08.833Z,30.07
2018-12-28T04:58:13.730Z,37.23
2018-12-28T05:00:17.805Z,35.50
2018-12-28T05:02:24.493Z,35.60
2018-12-28T05:04:31.286Z,35.83
2018-12-28T05:06:50.135Z,37.73
2018-12-28T05:09:21.180Z,33.17
2018-12-28T05:11:33.678Z,35.53
2018-12-28T05:13:55.434Z,36.73
2018-12-28T05:16:02.249Z,32.93
2018-12-28T05:18:24.113Z,31.90
2018-12-28T05:20:42.794Z,38.00
2018-12-28T05:22:58.471Z,37.47
2018-12-28T05:25:07.842Z,35.53
2018-12-28T05:27:20.723Z,37.37
2018-12-28T05:29:30.181Z,34.47
2018-12-28T05:31:34.058Z,33.23
2018-12-28T05:33:37.906Z,34.93
2018-12-28T05:35:41.806Z,36.00
2018-12-28T05:37:45.717Z,33.97
2018-12-28T05:39:49.641Z,36.70
2018-12-28T05:41:53.488Z,34.10
2018-12-28T05:43:57.347Z,36.30
2018-12-28T05:46:01.225Z,37.23
2018-12-28T05:48:05.128Z,34.13
2018-12-28T05:50:09.024Z,36.70
2018-12-28T05:52:12.909Z,34.90
2018-12-28T05:54:16.772Z,35.73
2018-12-28T05:56:20.694Z,33.93
2018-12-28T05:58:24.570Z,36.83
2018-12-28T06:00:28.473Z,35.53
2018-12-28T06:02:32.416Z,36.37
2018-12-28T06:04:36.300Z,32.80
2018-12-28T06:06:40.180Z,35.27
2018-12-28T06:08:44.192Z,37.67
2018-12-28T06:10:48.052Z,34.90
2018-12-28T06:12:51.972Z,36.47
2018-12-28T06:14:55.893Z,35.43
2018-12-28T06:16:59.736Z,45.53
2018-12-28T06:19:03.651Z,36.20
2018-12-28T06:21:07.536Z,38.33
2018-12-28T06:23:11.423Z,38.73
2018-12-28T06:25:15.352Z,33.10
2018-12-28T06:27:19.229Z,35.60
2018-12-28T06:29:23.118Z,38.63
2018-12-28T06:31:27.131Z,30.20
2018-12-28T06:33:30.994Z,34.53
2018-12-28T06:35:34.893Z,37.93
2018-12-28T06:37:38.753Z,37.23
2018-12-28T06:39:42.645Z,36.83
2018-12-28T06:41:46.557Z,40.00
2018-12-28T06:43:50.419Z,33.77
2018-12-28T06:45:54.282Z,33.23
2018-12-28T06:47:58.179Z,36.17
2018-12-28T06:50:02.099Z,36.70
2018-12-28T06:52:05.965Z,35.87
2018-12-28T06:54:12.835Z,37.23
2018-12-28T06:56:37.371Z,48.60
2018-12-28T06:59:02.154Z,33.27
2018-12-28T07:01:11.793Z,34.10
2018-12-28T07:03:38.611Z,36.90
2018-12-28T07:05:57.522Z,37.57
2018-12-28T07:08:33.106Z,33.83
2018-12-28T07:10:47.439Z,40.87
2018-12-28T07:12:56.852Z,36.60
2018-12-28T07:15:26.403Z,33.20
2018-12-28T07:17:36.125Z,35.00
2018-12-28T07:19:46.100Z,34.40
2018-12-28T07:22:01.743Z,32.03
2018-12-28T07:24:42.809Z,34.30
2018-12-28T07:27:13.714Z,34.50
2018-12-28T07:29:53.145Z,30.73
2018-12-28T07:32:11.742Z,38.73
2018-12-28T07:34:47.132Z,36.03
2018-12-28T07:37:11.970Z,38.60
2018-12-28T07:39:24.396Z,34.43
2018-12-28T07:41:34.121Z,37.50
2018-12-28T07:43:56.254Z,36.57
2018-12-28T07:46:24.389Z,43.40
2018-12-28T07:48:40.389Z,36.17
2018-12-28T07:51:19.112Z,32.27
2018-12-28T07:53:34.614Z,35.17
2018-12-28T07:56:02.567Z,37.43
2018-12-28T07:58:24.361Z,38.83
2018-12-28T08:00:37.042Z,36.77
2018-12-28T08:02:55.826Z,39.20
2018-12-28T08:05:05.273Z,40.20
2018-12-28T08:07:14.730Z,36.60
2018-12-28T08:09:36.663Z,33.30
2018-12-28T08:12:00.860Z,41.53
2018-12-28T08:14:07.698Z,35.93
2018-12-28T08:16:20.359Z,38.80
2018-12-28T08:18:36.200Z,41.87
2018-12-28T08:20:48.836Z,36.40
2018-12-28T08:23:12.420Z,42.43
2018-12-28T08:25:43.578Z,36.57
2018-12-28T08:27:55.871Z,39.63
2018-12-28T08:30:08.365Z,37.33
2018-12-28T08:32:33.143Z,40.43
2018-12-28T08:34:40.013Z,38.30
2018-12-28T08:36:49.544Z,34.87
2018-12-28T08:38:59.389Z,38.40
2018-12-28T08:41:25.479Z,37.37
2018-12-28T08:43:35.245Z,38.63
2018-12-28T08:45:57.003Z,39.70
2018-12-28T08:48:15.746Z,38.57
2018-12-28T08:50:51.583Z,38.60
2018-12-28T08:53:00.910Z,36.23
2018-12-28T08:55:27.054Z,38.27
2018-12-28T08:57:39.649Z,45.80
2018-12-28T09:00:03.144Z,37.93
2018-12-28T09:02:15.473Z,38.40
2018-12-28T09:04:31.335Z,36.70
2018-12-28T09:06:59.095Z,40.07
2018-12-28T09:09:08.874Z,37.23
2018-12-28T09:11:18.434Z,36.23
2018-12-28T09:13:44.741Z,34.37
2018-12-28T09:15:51.538Z,43.50
2018-12-28T09:18:16.842Z,40.57
2018-12-28T09:20:44.696Z,36.00
2018-12-28T09:22:54.570Z,37.23
2018-12-28T09:25:03.938Z,32.43
2018-12-28T09:27:22.914Z,33.00
2018-12-28T09:29:50.760Z,39.77
2018-12-28T09:32:14.229Z,35.40
2018-12-28T09:34:35.792Z,37.43
2018-12-28T09:36:45.362Z,35.07
2018-12-28T09:38:57.823Z,34.93
2018-12-28T09:41:16.738Z,39.90
2018-12-28T09:43:40.064Z,37.13
2018-12-28T09:45:55.449Z,38.00
2018-12-28T09:47:59.320Z,36.63
2018-12-28T09:50:17.761Z,36.17
2018-12-28T09:52:39.568Z,38.63
2018-12-28T09:54:46.731Z,38.60
2018-12-28T09:56:59.597Z,39.37
2018-12-28T09:59:20.217Z,35.13
2018-12-28T10:01:36.730Z,32.10
2018-12-28T10:04:00.190Z,37.70
2018-12-28T10:06:07.148Z,37.77
2018-12-28T10:08:22.926Z,35.50
2018-12-28T10:10:56.843Z,38.90
2018-12-28T10:13:18.751Z,37.07
2018-12-28T10:15:25.573Z,39.10
2018-12-28T10:17:29.439Z,36.53
2018-12-28T10:19:34.102Z,32.53
2018-12-28T10:21:37.949Z,39.37
2018-12-28T10:23:41.816Z,37.20
2018-12-28T10:25:45.696Z,28.67
2018-12-28T10:27:49.576Z,40.00
2018-12-28T10:29:53.437Z,35.13
2018-12-28T10:31:57.314Z,27.67
2018-12-28T10:34:01.250Z,32.63
2018-12-28T10:36:05.176Z,36.77
2018-12-28T10:38:09.050Z,34.07
2018-12-28T10:40:12.906Z,35.20
2018-12-28T10:42:16.802Z,30.73
2018-12-28T10:44:20.664Z,37.67
2018-12-28T10:46:24.546Z,36.60
2018-12-28T10:48:28.471Z,34.43
2018-12-28T10:50:32.373Z,32.13
2018-12-28T10:52:36.301Z,39.73
2018-12-28T10:54:40.154Z,34.33
2018-12-28T10:56:44.014Z,38.90
2018-12-28T10:58:47.897Z,33.37
2018-12-28T11:00:51.747Z,33.67
2018-12-28T11:02:55.650Z,32.57
2018-12-28T11:04:59.556Z,33.13
2018-12-28T11:07:03.436Z,35.60
2018-12-28T11:09:07.326Z,37.07
2018-12-28T11:11:11.203Z,31.83
2018-12-28T11:13:15.150Z,35.77
2018-12-28T11:15:19.034Z,37.07
2018-12-28T11:17:22.932Z,35.30
2018-12-28T11:19:26.818Z,36.83
2018-12-28T11:21:30.701Z,37.00
2018-12-28T11:23:34.542Z,31.20
2018-12-28T11:25:38.561Z,33.43
2018-12-28T11:27:42.448Z,37.03
2018-12-28T11:29:46.335Z,38.43
2018-12-28T11:31:50.273Z,34.37
2018-12-28T11:33:54.207Z,36.13
2018-12-28T11:35:58.054Z,35.53
2018-12-28T11:38:01.951Z,37.30
2018-12-28T11:40:06.456Z,34.33
2018-12-28T11:42:10.342Z,37.57
2018-12-28T11:44:14.322Z,36.57
2018-12-28T11:46:18.227Z,34.53
2018-12-28T11:48:22.066Z,34.67
2018-12-28T11:50:25.934Z,35.93
2018-12-28T11:52:29.804Z,32.37
2018-12-28T11:54:33.690Z,36.73
2018-12-28T11:56:37.627Z,29.37
2018-12-28T11:58:41.487Z,31.60
2018-12-28T12:00:45.518Z,34.17
2018-12-28T12:02:49.379Z,34.00
2018-12-28T12:04:53.281Z,30.67
2018-12-28T12:06:57.289Z,33.03
2018-12-28T12:09:01.137Z,34.53
2018-12-28T12:11:05.024Z,37.97
2018-12-28T12:13:09.262Z,35.10
2018-12-28T12:15:13.106Z,34.13
2018-12-28T12:17:16.972Z,36.30
2018-12-28T12:19:20.890Z,31.50
2018-12-28T12:21:24.802Z,35.47
2018-12-28T12:23:28.652Z,36.30
2018-12-28T12:25:32.549Z,38.90
2018-12-28T12:27:36.454Z,33.13
2018-12-28T12:29:40.370Z,33.77
2018-12-28T12:31:44.245Z,39.77
2018-12-28T12:33:48.270Z,35.90
2018-12-28T12:35:52.160Z,36.23
2018-12-28T12:37:56.371Z,36.60
2018-12-28T12:40:00.374Z,31.47
2018-12-28T12:42:07.653Z,32.53
2018-12-28T12:44:09.738Z,33.83
2018-12-28T12:46:13.650Z,34.33
2018-12-28T12:48:17.566Z,29.60
2018-12-28T12:50:21.454Z,34.27
2018-12-28T12:52:25.367Z,31.07
2018-12-28T12:54:29.250Z,30.43
2018-12-28T12:56:33.154Z,27.47
2018-12-28T12:58:36.994Z,32.57
2018-12-28T13:00:40.898Z,34.67
2018-12-28T13:02:44.783Z,28.90
2018-12-28T13:04:48.806Z,32.63
2018-12-28T13:06:52.685Z,25.00
2018-12-28T13:08:56.604Z,25.70
2018-12-28T13:11:00.632Z,31.63
2018-12-28T13:13:04.582Z,31.30
2018-12-28T13:15:08.434Z,33.40
2018-12-28T13:17:12.348Z,32.60
2018-12-28T13:19:16.241Z,35.13
2018-12-28T13:21:20.138Z,34.40
2018-12-28T13:23:24.016Z,35.70
2018-12-28T13:25:27.943Z,30.10
2018-12-28T13:27:31.849Z,28.93
2018-12-28T13:29:35.716Z,29.70
2018-12-28T13:31:39.666Z,38.63
2018-12-28T13:33:43.521Z,24.87
2018-12-28T13:35:47.390Z,31.87
2018-12-28T13:37:51.402Z,33.50
2018-12-28T13:39:55.267Z,34.30
2018-12-28T13:41:59.132Z,26.00
2018-12-28T13:44:03.067Z,35.03
2018-12-28T13:46:06.929Z,33.63
2018-12-28T13:48:10.926Z,33.03
2018-12-28T13:50:14.790Z,36.37
2018-12-28T13:52:18.663Z,33.23
2018-12-28T13:54:22.629Z,35.90
2018-12-28T13:56:26.514Z,33.27
2018-12-28T13:58:30.355Z,32.23
2018-12-28T14:00:34.319Z,35.23
2018-12-28T14:02:38.191Z,27.07
2018-12-28T14:04:42.047Z,33.33
2018-12-28T14:06:45.943Z,31.83
2018-12-28T14:08:49.826Z,33.70
2018-12-28T14:10:53.714Z,35.10
2018-12-28T14:12:57.578Z,33.00
2018-12-28T14:15:01.477Z,33.93
2018-12-28T14:17:05.425Z,36.80
2018-12-28T14:19:09.324Z,36.43
2018-12-28T14:21:13.189Z,26.80
2018-12-28T14:23:17.098Z,32.60
2018-12-28T14:25:20.953Z,33.70
2018-12-28T14:27:24.865Z,27.17
2018-12-28T14:29:28.728Z,31.80
2018-12-28T14:31:32.646Z,34.37
2018-12-28T14:33:36.559Z,32.13
2018-12-28T14:35:40.439Z,28.07
2018-12-28T14:37:44.290Z,34.50
2018-12-28T14:39:48.430Z,39.47
2018-12-28T14:41:52.360Z,33.93
2018-12-28T14:43:57.177Z,31.70
2018-12-28T14:46:01.083Z,33.30
2018-12-28T14:48:05.059Z,39.37
2018-12-28T14:50:09.272Z,33.73
2018-12-28T14:52:13.165Z,39.10
2018-12-28T14:54:17.039Z,33.10
2018-12-28T14:56:20.931Z,35.17
2018-12-28T14:58:24.794Z,33.83
2018-12-28T15:00:30.290Z,30.70
2018-12-28T15:02:34.226Z,35.73
2018-12-28T15:04:38.117Z,32.97
2018-12-28T15:06:42.020Z,36.07
2018-12-28T15:08:45.886Z,40.17
2018-12-28T15:10:49.803Z,37.20
2018-12-28T15:12:53.689Z,30.37
2018-12-28T15:14:57.561Z,35.90
2018-12-28T15:17:02.106Z,33.77
2018-12-28T15:19:06.058Z,37.73
2018-12-28T15:21:09.966Z,32.10
2018-12-28T15:23:13.867Z,36.37
2018-12-28T15:25:17.727Z,34.07
2018-12-28T15:27:21.633Z,30.87
2018-12-28T15:29:25.535Z,36.37
2018-12-28T15:31:29.574Z,36.57
2018-12-28T15:33:33.547Z,29.03
2018-12-28T15:35:37.434Z,33.97
2018-12-28T15:37:41.317Z,32.60
2018-12-28T15:39:45.218Z,34.97
2018-12-28T15:41:49.205Z,37.73
2018-12-28T15:43:53.094Z,34.57
2018-12-28T15:45:57.023Z,32.77
2018-12-28T15:48:00.889Z,35.43
2018-12-28T15:50:05.988Z,23.73
2018-12-28T15:52:09.851Z,29.07
2018-12-28T15:54:13.828Z,34.47
2018-12-28T15:56:17.662Z,35.10
2018-12-28T15:58:21.527Z,34.23
2018-12-28T16:00:25.550Z,35.40
2018-12-28T16:02:29.418Z,37.03
2018-12-28T16:04:33.279Z,37.23
2018-12-28T16:06:37.198Z,31.30
2018-12-28T16:08:41.051Z,35.57
2018-12-28T16:10:45.237Z,34.50
2018-12-28T16:12:49.143Z,34.57
2018-12-28T16:14:53.530Z,33.93
2018-12-28T16:16:57.756Z,34.23
2018-12-28T16:19:02.038Z,36.73
2018-12-28T16:21:05.939Z,34.10
2018-12-28T16:23:09.795Z,34.63
2018-12-28T16:25:13.702Z,34.83
2018-12-28T16:27:17.598Z,39.40
2018-12-28T16:29:21.459Z,36.70
2018-12-28T16:31:25.347Z,34.60
2018-12-28T16:33:29.223Z,33.60
2018-12-28T16:35:33.069Z,33.87
2018-12-28T16:37:36.943Z,34.20
2018-12-28T16:39:40.797Z,34.23
2018-12-28T16:41:44.670Z,37.20
2018-12-28T16:43:48.605Z,35.90
2018-12-28T16:45:52.470Z,39.93
2018-12-28T16:47:56.335Z,33.27
2018-12-28T16:50:00.225Z,38.47
2018-12-28T16:52:04.132Z,36.93
2018-12-28T16:54:07.981Z,36.63
2018-12-28T16:56:11.872Z,41.33
2018-12-28T16:58:15.746Z,34.90
2018-12-28T17:00:19.786Z,37.07
2018-12-28T17:02:23.647Z,36.07
2018-12-28T17:04:27.586Z,37.77
2018-12-28T17:06:31.493Z,28.43
2018-12-28T17:08:35.344Z,39.93
2018-12-28T17:10:39.203Z,36.07
2018-12-28T17:12:43.265Z,38.17
2018-12-28T17:14:47.111Z,35.17
2018-12-28T17:16:50.987Z,36.43
2018-12-28T17:18:54.888Z,33.60
2018-12-28T17:20:58.740Z,38.17
2018-12-28T17:23:02.601Z,29.80
2018-12-28T17:25:06.643Z,32.90
2018-12-28T17:27:10.528Z,28.83
2018-12-28T17:29:14.442Z,36.50
2018-12-28T17:31:18.362Z,29.43
2018-12-28T17:33:22.226Z,30.33
2018-12-28T17:35:26.094Z,34.43
2018-12-28T17:37:30.073Z,33.60
2018-12-28T17:39:33.972Z,27.87
2018-12-28T17:41:37.875Z,37.13
2018-12-28T17:43:41.726Z,35.50
2018-12-28T17:45:45.798Z,39.50
2018-12-28T17:47:49.633Z,34.93
2018-12-28T17:49:53.526Z,34.57
2018-12-28T17:51:57.460Z,36.77
2018-12-28T17:54:01.326Z,33.97
2018-12-28T17:56:05.194Z,35.20
2018-12-28T17:58:09.079Z,38.87
2018-12-28T18:00:13.107Z,32.07
2018-12-28T18:02:16.966Z,38.53
2018-12-28T18:04:20.879Z,38.07
2018-12-28T18:06:24.754Z,41.03
2018-12-28T18:08:28.614Z,37.63
2018-12-28T18:10:32.657Z,34.63
2018-12-28T18:12:36.524Z,42.27
2018-12-28T18:14:40.386Z,38.47
2018-12-28T18:16:44.379Z,44.63
2018-12-28T18:18:48.237Z,46.23
2018-12-28T18:20:52.085Z,43.87
2018-12-28T18:22:55.967Z,39.37
2018-12-28T18:24:59.827Z,41.00
2018-12-28T18:27:03.723Z,45.80
2018-12-28T18:29:07.591Z,44.60
2018-12-28T18:31:11.462Z,32.73
2018-12-28T18:33:15.367Z,40.13
2018-12-28T18:35:19.236Z,35.37
2018-12-28T18:37:23.199Z,36.97
2018-12-28T18:39:27.064Z,41.47
2018-12-28T18:41:30.931Z,41.13
2018-12-28T18:43:34.992Z,37.20
2018-12-28T18:45:38.869Z,41.13
2018-12-28T18:47:42.742Z,40.00
2018-12-28T18:49:46.650Z,41.77
2018-12-28T18:51:50.534Z,45.57
2018-12-28T18:53:54.522Z,45.83
2018-12-28T18:55:58.701Z,43.67
2018-12-28T18:58:02.587Z,45.97
2018-12-28T19:00:07.390Z,41.57
2018-12-28T19:02:11.231Z,42.27
2018-12-28T19:04:15.260Z,40.27
2018-12-28T19:06:19.140Z,44.17
2018-12-28T19:08:23.030Z,42.80
2018-12-28T19:10:26.950Z,39.90
2018-12-28T19:12:30.795Z,44.13
2018-12-28T19:14:34.672Z,42.67
2018-12-28T19:16:38.612Z,40.80
2018-12-28T19:18:42.518Z,41.87
2018-12-28T19:20:46.420Z,43.57
2018-12-28T19:22:50.353Z,44.67
2018-12-28T19:24:54.222Z,44.43
2018-12-28T19:26:58.172Z,45.23
2018-12-28T19:29:02.077Z,41.30
2018-12-28T19:31:05.982Z,46.80
2018-12-28T19:33:09.939Z,55.57
2018-12-28T19:35:13.793Z,48.30
2018-12-28T19:37:17.730Z,45.27
2018-12-28T19:39:21.589Z,42.47
2018-12-28T19:41:25.502Z,46.37
2018-12-28T19:43:29.391Z,34.33
2018-12-28T19:45:33.303Z,42.90
2018-12-28T19:47:37.167Z,35.43
2018-12-28T19:49:47.564Z,40.10
2018-12-28T19:51:52.006Z,39.30
2018-12-28T19:53:55.990Z,34.60
2018-12-28T19:55:59.905Z,41.87
2018-12-28T19:58:03.843Z,47.73
2018-12-28T20:00:08.728Z,43.20
2018-12-28T20:02:12.662Z,43.47
2018-12-28T20:04:17.090Z,39.37
2018-12-28T20:06:21.901Z,44.10
2018-12-28T20:08:26.120Z,43.27
2018-12-28T20:10:30.577Z,44.20
2018-12-28T20:12:35.911Z,44.60
2018-12-28T20:14:41.149Z,35.63
2018-12-28T20:16:46.277Z,43.33
2018-12-28T20:18:51.591Z,43.03
2018-12-28T20:20:57.079Z,43.53
2018-12-28T20:23:01.971Z,43.63
2018-12-28T20:25:06.547Z,42.23
2018-12-28T20:27:11.158Z,47.67
2018-12-28T20:29:15.393Z,44.43
2018-12-28T20:31:19.703Z,45.60
2018-12-28T20:33:23.931Z,48.57
2018-12-28T20:35:28.316Z,41.13
2018-12-28T20:37:32.899Z,42.20
2018-12-28T20:39:37.431Z,45.87
2018-12-28T20:41:42.519Z,51.57
2018-12-28T20:43:46.782Z,50.00
2018-12-28T20:45:51.129Z,49.33
2018-12-28T20:47:55.794Z,45.20
2018-12-28T20:50:01.132Z,48.67
2018-12-28T20:52:06.263Z,50.83
2018-12-28T20:54:11.613Z,47.10
2018-12-28T20:56:16.328Z,46.23
2018-12-28T20:58:21.458Z,41.20
2018-12-28T21:00:25.705Z,40.97
2018-12-28T21:02:29.858Z,39.37
2018-12-28T21:04:33.841Z,41.93
2018-12-28T21:06:37.750Z,51.40
2018-12-28T21:08:41.782Z,43.03
2018-12-28T21:10:45.752Z,46.77
2018-12-28T21:12:49.647Z,47.67
2018-12-28T21:14:53.627Z,44.70
2018-12-28T21:16:57.480Z,47.70
2018-12-28T21:19:01.453Z,50.57
2018-12-28T21:21:05.336Z,47.93
2018-12-28T21:23:09.246Z,44.50
2018-12-28T21:25:13.155Z,46.50
2018-12-28T21:27:17.006Z,42.20
2018-12-28T21:29:20.922Z,46.67
2018-12-28T21:31:24.781Z,46.63
2018-12-28T21:33:28.716Z,44.03
2018-12-28T21:35:32.608Z,48.00
2018-12-28T21:37:36.475Z,47.60
2018-12-28T21:39:40.474Z,49.27
2018-12-28T21:41:44.358Z,43.13
2018-12-28T21:43:48.233Z,42.03
2018-12-28T21:45:52.310Z,39.23
2018-12-28T21:47:56.163Z,41.13
2018-12-28T21:50:00.028Z,44.70
2018-12-28T21:52:03.940Z,45.07
2018-12-28T21:54:07.837Z,45.67
2018-12-28T21:56:11.728Z,41.67
2018-12-28T21:58:15.658Z,43.83
2018-12-28T22:00:19.559Z,43.40
2018-12-28T22:02:23.449Z,43.30
2018-12-28T22:04:27.328Z,44.77
2018-12-28T22:06:31.198Z,39.97
2018-12-28T22:08:35.111Z,40.13
2018-12-28T22:10:39.002Z,44.17
2018-12-28T22:12:42.891Z,39.20
2018-12-28T22:14:46.793Z,44.53
2018-12-28T22:16:50.745Z,44.27
2018-12-28T22:18:54.584Z,40.63
2018-12-28T22:20:58.458Z,38.43
2018-12-28T22:23:02.338Z,42.20
2018-12-28T22:25:06.647Z,44.27
2018-12-28T22:27:10.566Z,41.77
2018-12-28T22:29:14.423Z,39.77
2018-12-28T22:31:18.308Z,46.77
2018-12-28T22:33:22.214Z,42.17
2018-12-28T22:35:26.079Z,46.27
2018-12-28T22:37:30.037Z,45.10
2018-12-28T22:39:33.933Z,43.03
2018-12-28T22:41:37.782Z,41.23
2018-12-28T22:43:41.679Z,44.23
2018-12-28T22:45:45.566Z,41.17
2018-12-28T22:47:49.446Z,41.47
2018-12-28T22:49:53.371Z,37.70
2018-12-28T22:51:57.217Z,40.43
2018-12-28T22:54:01.121Z,42.13
2018-12-28T22:56:04.995Z,39.57
2018-12-28T22:58:08.906Z,35.80
2018-12-28T23:00:14.353Z,41.50
2018-12-28T23:02:18.256Z,37.63
2018-12-28T23:04:22.190Z,42.13
2018-12-28T23:06:26.077Z,39.77
2018-12-28T23:08:29.915Z,37.50
2018-12-28T23:10:33.810Z,37.60
2018-12-28T23:12:37.706Z,32.57
2018-12-28T23:14:41.598Z,37.33
2018-12-28T23:16:45.492Z,42.13
2018-12-28T23:18:49.358Z,42.10
2018-12-28T23:20:53.222Z,45.70
2018-12-28T23:22:57.175Z,33.87
2018-12-28T23:25:01.054Z,33.73
2018-12-28T23:27:05.001Z,31.50
2018-12-28T23:29:08.888Z,39.87
2018-12-28T23:31:12.769Z,39.53
2018-12-28T23:33:16.622Z,37.90
2018-12-28T23:35:20.515Z,35.93
2018-12-28T23:37:24.448Z,34.70
2018-12-28T23:39:28.313Z,31.47
2018-12-28T23:41:32.174Z,35.97
2018-12-28T23:43:36.069Z,37.80
2018-12-28T23:45:39.935Z,40.20
2018-12-28T23:47:43.888Z,39.77
2018-12-28T23:49:47.730Z,36.20
2018-12-28T23:51:51.633Z,37.37
2018-12-28T23:53:55.595Z,33.37
2018-12-28T23:55:59.551Z,35.40
2018-12-28T23:58:03.526Z,37.47
